Time;durP1;ratioP1;P1;durP2;ratioP2;P2;SDS_P1;SDS_P2;PMS_P1;PMS_P2;Temp;Humidity;BMP_temperature;BMP_pressure;BME280_temperature;BME280_humidity;BME280_pressure;Samples;Min_cycle;Max_cycle;Signal;HPM_P1;HPM_P2
2022/06/03 00:01:12;;;;;;;0.60;0.60;;;10.20;99.90;;;;;;5070886;28;20717;-85
2022/06/03 00:04:17;;;;;;;0.60;0.60;;;10.10;99.90;;;;;;5065154;28;20192;-85
2022/06/03 00:06:55;;;;;;;0.70;0.70;;;10.20;99.90;;;;;;5083563;28;20593;-86
2022/06/03 00:09:36;;;;;;;0.55;0.55;;;10.20;99.90;;;;;;5064942;28;20193;-85
2022/06/03 00:12:14;;;;;;;0.70;0.70;;;10.20;99.90;;;;;;5083480;28;20215;-85
2022/06/03 00:14:53;;;;;;;0.60;0.60;;;10.20;99.90;;;;;;5064676;28;20572;-85
2022/06/03 00:17:40;;;;;;;0.73;0.73;;;10.20;99.90;;;;;;5081954;28;20590;-84
2022/06/03 00:20:24;;;;;;;0.60;0.60;;;10.20;99.90;;;;;;5065394;28;20287;-85
2022/06/03 00:23:28;;;;;;;0.90;0.90;;;10.20;99.90;;;;;;5084175;28;20262;-85
2022/06/03 00:26:27;;;;;;;0.82;0.82;;;10.20;99.90;;;;;;5084960;28;20215;-84
2022/06/03 00:29:34;;;;;;;0.52;0.52;;;10.20;99.90;;;;;;5085001;28;20196;-84
2022/06/03 00:32:03;;;;;;;0.95;0.93;;;10.20;99.90;;;;;;5084763;28;20288;-85
2022/06/03 00:34:32;;;;;;;0.57;0.57;;;10.30;99.90;;;;;;5101374;28;20559;-86
2022/06/03 00:37:09;;;;;;;1.02;0.93;;;10.30;99.90;;;;;;5083932;28;20196;-85
2022/06/03 00:39:41;;;;;;;0.68;0.68;;;10.30;99.90;;;;;;5083417;28;20204;-85
2022/06/03 00:42:36;;;;;;;0.60;0.60;;;10.30;99.90;;;;;;5102135;28;20711;-84
2022/06/03 00:45:38;;;;;;;0.50;0.50;;;10.30;99.90;;;;;;5101096;28;20227;-85
2022/06/03 00:48:30;;;;;;;0.70;0.70;;;10.30;99.90;;;;;;5084090;28;20195;-84
2022/06/03 00:51:23;;;;;;;0.90;0.90;;;10.30;99.90;;;;;;5101829;28;20650;-84
2022/06/03 00:54:08;;;;;;;0.70;0.70;;;10.30;99.90;;;;;;5083844;28;20552;-85
2022/06/03 00:56:50;;;;;;;0.70;0.68;;;10.30;99.90;;;;;;5072470;28;20196;-85
2022/06/03 00:59:35;;;;;;;0.70;0.70;;;10.30;99.90;;;;;;5063868;28;20189;-84
2022/06/03 01:02:18;;;;;;;0.73;0.73;;;10.20;99.90;;;;;;5083301;28;20200;-86
2022/06/03 01:05:02;;;;;;;0.57;0.57;;;10.30;99.90;;;;;;5083029;28;20265;-85
2022/06/03 01:07:40;;;;;;;0.60;0.60;;;10.30;99.90;;;;;;5082579;28;20192;-85
2022/06/03 01:10:22;;;;;;;0.60;0.60;;;10.30;99.90;;;;;;5082682;28;20192;-84
2022/06/03 01:13:02;;;;;;;0.70;0.68;;;10.30;99.90;;;;;;5101335;28;20195;-84
2022/06/03 01:15:52;;;;;;;0.80;0.80;;;10.20;99.90;;;;;;5083068;28;20203;-84
2022/06/03 01:18:48;;;;;;;0.68;0.68;;;10.20;99.90;;;;;;5083164;28;20666;-84
2022/06/03 01:21:55;;;;;;;0.63;0.63;;;10.20;99.90;;;;;;5101520;28;20255;-87
2022/06/03 01:24:32;;;;;;;0.65;0.65;;;10.10;99.90;;;;;;5088826;28;20748;-86
2022/06/03 01:26:58;;;;;;;0.70;0.70;;;10.10;99.90;;;;;;5083896;28;20195;-83
2022/06/03 01:29:33;;;;;;;2.08;0.85;;;10.00;99.90;;;;;;5083309;28;20188;-85
2022/06/03 01:32:26;;;;;;;0.85;0.85;;;10.10;99.90;;;;;;5084355;28;20199;-85
2022/06/03 01:35:24;;;;;;;0.60;0.60;;;10.10;99.90;;;;;;5044034;28;20201;-85
2022/06/03 01:38:09;;;;;;;0.50;0.50;;;10.20;99.90;;;;;;5044307;28;20284;-85
2022/06/03 01:40:50;;;;;;;0.88;0.88;;;10.20;99.90;;;;;;5044542;28;20691;-85
2022/06/03 01:43:36;;;;;;;0.60;0.60;;;10.20;99.90;;;;;;5044196;28;20193;-85
2022/06/03 01:46:21;;;;;;;1.00;1.00;;;10.20;99.90;;;;;;5044334;28;20727;-84
2022/06/03 01:49:22;;;;;;;0.68;0.68;;;10.20;99.90;;;;;;5044272;28;20197;-85
2022/06/03 01:51:58;;;;;;;0.60;0.60;;;10.20;99.90;;;;;;5046210;28;20264;-85
2022/06/03 01:54:38;;;;;;;0.80;0.80;;;10.10;99.90;;;;;;5063016;28;20200;-85
2022/06/03 01:57:35;;;;;;;0.90;0.90;;;10.10;99.90;;;;;;5078376;28;20303;-86
2022/06/03 02:00:24;;;;;;;0.77;0.77;;;10.20;99.90;;;;;;5083479;28;20204;-85
2022/06/03 02:03:02;;;;;;;0.57;0.57;;;10.20;99.90;;;;;;5061750;28;20212;-85
2022/06/03 02:05:40;;;;;;;0.60;0.60;;;10.20;99.90;;;;;;5060007;28;20247;-86
2022/06/03 02:08:30;;;;;;;1.27;1.02;;;10.20;99.90;;;;;;5062713;28;20228;-84
2022/06/03 02:11:07;;;;;;;0.60;0.60;;;10.20;99.90;;;;;;5063414;28;20236;-83
2022/06/03 02:13:41;;;;;;;1.23;1.13;;;10.20;99.90;;;;;;5080646;28;20189;-84
2022/06/03 02:16:38;;;;;;;0.90;0.77;;;10.20;99.90;;;;;;5063993;28;20227;-85
2022/06/03 02:19:42;;;;;;;1.42;1.33;;;10.20;99.90;;;;;;5062675;28;20192;-84
2022/06/03 02:22:30;;;;;;;0.50;0.50;;;10.30;99.90;;;;;;5019888;28;20224;-85
2022/06/03 02:25:11;;;;;;;0.77;0.77;;;10.40;99.90;;;;;;5063726;28;20205;-85
2022/06/03 02:27:39;;;;;;;0.80;0.80;;;10.50;99.90;;;;;;5043032;28;20221;-84
2022/06/03 02:30:27;;;;;;;0.80;0.80;;;10.50;99.90;;;;;;5059630;28;20205;-81
2022/06/03 02:33:28;;;;;;;0.80;0.80;;;10.50;99.90;;;;;;5063976;28;20212;-84
2022/06/03 02:36:25;;;;;;;0.82;0.82;;;10.60;99.90;;;;;;5063713;28;20196;-84
2022/06/03 02:39:06;;;;;;;1.00;0.90;;;10.60;99.90;;;;;;5063985;28;20676;-83
2022/06/03 02:42:11;;;;;;;0.65;0.65;;;10.70;99.90;;;;;;5093020;28;20203;-84
2022/06/03 02:44:52;;;;;;;0.70;0.70;;;10.70;99.90;;;;;;5081286;28;20276;-83
2022/06/03 02:47:39;;;;;;;0.82;0.82;;;10.80;99.90;;;;;;5101601;28;20559;-84
2022/06/03 02:50:23;;;;;;;0.60;0.60;;;10.80;99.90;;;;;;5064706;28;20203;-83
2022/06/03 02:53:01;;;;;;;1.42;1.33;;;10.80;99.90;;;;;;5091514;28;20658;-85
2022/06/03 02:56:05;;;;;;;0.88;0.88;;;10.80;99.90;;;;;;5083156;28;20696;-85
2022/06/03 02:58:59;;;;;;;0.60;0.60;;;10.90;99.90;;;;;;5101447;28;20188;-85
2022/06/03 03:01:42;;;;;;;0.68;0.68;;;10.90;99.90;;;;;;5071591;28;20679;-85
2022/06/03 03:04:27;;;;;;;0.82;0.82;;;10.90;99.90;;;;;;5064374;28;20199;-85
2022/06/03 03:07:15;;;;;;;0.70;0.70;;;11.00;99.90;;;;;;5061156;28;20781;-85
2022/06/03 03:10:26;;;;;;;1.65;1.15;;;11.00;99.90;;;;;;5063164;28;20204;-84
2022/06/03 03:13:29;;;;;;;0.60;0.60;;;11.00;99.90;;;;;;5040078;28;20687;-84
2022/06/03 03:16:16;;;;;;;4.63;1.55;;;11.10;99.90;;;;;;5062505;28;20196;-84
2022/06/03 03:18:50;;;;;;;0.93;0.80;;;11.00;99.90;;;;;;5062386;28;20668;-85
2022/06/03 03:21:48;;;;;;;0.68;0.65;;;11.10;99.90;;;;;;5059531;28;20267;-85
2022/06/03 03:24:19;;;;;;;1.15;1.05;;;11.10;99.90;;;;;;5063235;28;20212;-85
2022/06/03 03:27:13;;;;;;;1.20;1.15;;;11.10;99.90;;;;;;5063053;28;20204;-84
2022/06/03 03:30:07;;;;;;;1.25;1.15;;;11.20;99.90;;;;;;5063337;28;20198;-84
2022/06/03 03:33:02;;;;;;;0.68;0.68;;;11.20;99.90;;;;;;5063639;28;20197;-85
2022/06/03 03:36:09;;;;;;;0.50;0.50;;;11.20;99.90;;;;;;5079265;28;20300;-84
2022/06/03 03:38:47;;;;;;;1.25;1.02;;;11.30;99.90;;;;;;5080751;28;20223;-84
2022/06/03 03:41:38;;;;;;;1.45;1.35;;;11.30;99.90;;;;;;5062513;28;20318;-85
2022/06/03 03:44:16;;;;;;;0.70;0.70;;;11.40;99.90;;;;;;5063262;28;20212;-86
2022/06/03 03:47:20;;;;;;;1.92;1.55;;;11.40;99.90;;;;;;5063792;28;20300;-84
2022/06/03 03:50:08;;;;;;;6.22;3.35;;;11.50;99.90;;;;;;5079091;28;20209;-84
2022/06/03 03:52:58;;;;;;;1.08;1.05;;;11.50;99.90;;;;;;5064544;28;20190;-85
2022/06/03 03:55:30;;;;;;;3.22;1.35;;;11.50;99.90;;;;;;5061767;28;20231;-85
2022/06/03 03:58:02;;;;;;;0.60;0.60;;;11.60;99.90;;;;;;5064585;28;20194;-86
2022/06/03 04:00:36;;;;;;;0.68;0.68;;;11.60;99.90;;;;;;5064594;28;20224;-85
2022/06/03 04:03:27;;;;;;;0.55;0.55;;;11.70;99.90;;;;;;5062372;28;20211;-86
2022/06/03 04:06:08;;;;;;;0.70;0.70;;;11.80;99.90;;;;;;5079853;28;20209;-85
2022/06/03 04:08:52;;;;;;;0.60;0.60;;;11.80;99.90;;;;;;5064730;28;20190;-85
2022/06/03 04:11:32;;;;;;;0.50;0.50;;;11.80;99.90;;;;;;5079927;28;20193;-83
2022/06/03 04:14:19;;;;;;;1.50;1.38;;;11.90;99.90;;;;;;5079144;28;20559;-85
2022/06/03 04:17:27;;;;;;;0.77;0.77;;;12.00;99.90;;;;;;5063445;28;20190;-85
2022/06/03 04:20:23;;;;;;;1.30;0.70;;;12.10;99.90;;;;;;5061811;28;20212;-85
2022/06/03 04:23:10;;;;;;;0.60;0.60;;;12.20;99.90;;;;;;5084126;28;20289;-85
2022/06/03 04:26:03;;;;;;;0.50;0.50;;;12.20;99.90;;;;;;5103176;28;20200;-86
2022/06/03 04:28:54;;;;;;;0.85;0.85;;;12.20;99.90;;;;;;5084303;28;20199;-85
2022/06/03 04:31:57;;;;;;;0.95;0.88;;;12.20;99.90;;;;;;5084205;28;20196;-85
2022/06/03 04:34:59;;;;;;;0.85;0.85;;;12.20;99.90;;;;;;5101490;28;20708;-85
2022/06/03 04:38:10;;;;;;;1.08;1.02;;;12.30;99.90;;;;;;5083635;28;20223;-85
2022/06/03 04:41:01;;;;;;;2.95;1.85;;;12.30;99.90;;;;;;5076981;28;20270;-86
2022/06/03 04:43:48;;;;;;;0.68;0.68;;;12.30;99.90;;;;;;5063395;28;20192;-86
2022/06/03 04:46:45;;;;;;;1.30;1.08;;;12.40;99.90;;;;;;5098873;28;20204;-86
2022/06/03 04:50:02;;;;;;;0.50;0.50;;;12.50;99.90;;;;;;5084486;28;20204;-85
2022/06/03 04:53:04;;;;;;;1.10;1.02;;;12.40;99.90;;;;;;5039559;28;20333;-86
2022/06/03 04:55:49;;;;;;;0.73;0.73;;;12.60;99.90;;;;;;5083587;28;20286;-86
2022/06/03 04:58:51;;;;;;;0.63;0.63;;;12.60;99.90;;;;;;5083128;28;20677;-84
2022/06/03 05:01:36;;;;;;;1.10;0.93;;;12.80;99.90;;;;;;5072885;28;20201;-87
2022/06/03 05:04:23;;;;;;;0.75;0.75;;;12.70;99.90;;;;;;5061735;28;20193;-84
2022/06/03 05:07:04;;;;;;;0.73;0.73;;;13.10;99.90;;;;;;5062323;28;20239;-85
2022/06/03 05:09:45;;;;;;;0.60;0.60;;;13.20;99.90;;;;;;5060787;28;20200;-81
2022/06/03 05:13:03;;;;;;;1.58;1.23;;;13.10;99.90;;;;;;5079139;28;20195;-82
2022/06/03 05:15:49;;;;;;;0.52;0.52;;;13.00;99.90;;;;;;5052078;28;20672;-82
2022/06/03 05:18:21;;;;;;;1.02;1.02;;;13.00;99.90;;;;;;5077980;28;20669;-80
2022/06/03 05:21:26;;;;;;;0.50;0.50;;;13.00;99.90;;;;;;5060260;28;20260;-82
2022/06/03 05:24:13;;;;;;;1.23;1.20;;;13.00;99.90;;;;;;5078174;28;20219;-81
2022/06/03 05:26:57;;;;;;;0.50;0.50;;;12.90;99.90;;;;;;5078603;28;21199;-83
2022/06/03 05:30:07;;;;;;;0.57;0.57;;;13.00;99.90;;;;;;5060665;28;20196;-83
2022/06/03 05:33:14;;;;;;;0.85;0.85;;;13.10;99.90;;;;;;5059938;28;20197;-81
2022/06/03 05:36:01;;;;;;;0.85;0.85;;;13.10;99.90;;;;;;5052169;28;20220;-81
2022/06/03 05:38:51;;;;;;;0.77;0.77;;;13.30;99.90;;;;;;5062633;28;20228;-82
2022/06/03 05:44:34;;;;;;;3.83;1.05;;;13.30;99.90;;;;;;5058005;28;20247;-80
2022/06/03 05:47:08;;;;;;;0.77;0.77;;;13.50;99.90;;;;;;5040085;28;20192;-81
2022/06/03 05:49:49;;;;;;;0.80;0.80;;;13.70;99.90;;;;;;5040292;28;20198;-81
2022/06/03 05:52:32;;;;;;;0.70;0.70;;;13.80;99.90;;;;;;5040247;28;20250;-82
2022/06/03 05:55:40;;;;;;;0.85;0.85;;;14.00;99.90;;;;;;5039929;28;20284;-81
2022/06/03 05:58:45;;;;;;;0.60;0.60;;;14.20;99.90;;;;;;5017213;28;20215;-81
2022/06/03 06:01:27;;;;;;;0.68;0.68;;;14.30;99.90;;;;;;5038998;28;20201;-81
2022/06/03 06:04:04;;;;;;;0.63;0.63;;;14.40;99.90;;;;;;5039864;28;20208;-81
2022/06/03 06:06:39;;;;;;;1.95;1.23;;;14.40;99.90;;;;;;5039560;28;20201;-81
2022/06/03 06:09:07;;;;;;;1.58;0.88;;;14.30;99.90;;;;;;5039909;28;20233;-82
2022/06/03 06:11:59;;;;;;;0.63;0.63;;;14.40;99.90;;;;;;5052377;28;20197;-82
2022/06/03 06:14:44;;;;;;;1.65;0.88;;;14.30;99.90;;;;;;5029730;28;20663;-81
2022/06/03 06:17:39;;;;;;;0.90;0.90;;;14.30;99.90;;;;;;5059525;28;20196;-80
2022/06/03 06:20:31;;;;;;;0.40;0.40;;;14.20;99.90;;;;;;5043785;28;20215;-83
2022/06/03 06:23:14;;;;;;;0.52;0.52;;;14.10;99.90;;;;;;5075054;28;20232;-83
2022/06/03 06:25:51;;;;;;;0.50;0.50;;;14.10;99.90;;;;;;5076535;28;20583;-83
2022/06/03 06:28:19;;;;;;;0.63;0.63;;;14.10;99.90;;;;;;5076791;28;20199;-84
2022/06/03 06:31:13;;;;;;;0.50;0.50;;;14.00;99.90;;;;;;5079923;28;20674;-83
2022/06/03 06:34:03;;;;;;;0.50;0.50;;;13.90;99.90;;;;;;5070265;28;20200;-84
2022/06/03 06:37:05;;;;;;;0.60;0.60;;;14.10;99.90;;;;;;5060766;28;20622;-82
2022/06/03 06:39:52;;;;;;;0.63;0.63;;;14.30;99.90;;;;;;5030376;28;20694;-81
2022/06/03 06:42:18;;;;;;;1.05;1.05;;;14.30;99.90;;;;;;5040496;28;20189;-81
2022/06/03 06:45:28;;;;;;;0.90;0.80;;;14.40;99.90;;;;;;5040427;28;20316;-81
2022/06/03 06:48:18;;;;;;;1.30;1.05;;;14.70;99.90;;;;;;5039880;28;20205;-84
2022/06/03 06:51:00;;;;;;;0.60;0.60;;;14.90;99.90;;;;;;5058029;28;20229;-83
2022/06/03 06:53:41;;;;;;;0.70;0.70;;;15.20;99.90;;;;;;5057363;28;20208;-85
2022/06/03 06:56:32;;;;;;;0.73;0.50;;;15.10;99.90;;;;;;5043522;28;20207;-83
2022/06/03 06:59:13;;;;;;;0.65;0.65;;;15.00;99.90;;;;;;5062783;28;20204;-83
2022/06/03 07:02:06;;;;;;;0.60;0.60;;;14.70;99.90;;;;;;5080668;28;20200;-83
2022/06/03 07:04:41;;;;;;;1.27;0.95;;;14.50;99.90;;;;;;5055258;28;20223;-82
2022/06/03 07:07:31;;;;;;;0.85;0.70;;;14.40;99.90;;;;;;5067746;28;20200;-83
2022/06/03 07:10:12;;;;;;;0.70;0.70;;;14.40;99.90;;;;;;5082891;28;20268;-84
2022/06/03 07:12:37;;;;;;;0.50;0.50;;;14.40;99.90;;;;;;5081281;28;20196;-84
2022/06/03 07:15:15;;;;;;;1.63;1.52;;;14.30;99.90;;;;;;5081277;28;20257;-84
2022/06/03 07:21:29;;;;;;;0.50;0.50;;;14.50;99.90;;;;;;5066327;28;20291;-81
2022/06/03 07:24:07;;;;;;;0.77;0.77;;;14.50;99.90;;;;;;5083521;28;20204;-82
2022/06/03 07:26:46;;;;;;;3.53;1.23;;;14.50;99.90;;;;;;5089166;28;20196;-81
2022/06/03 07:29:53;;;;;;;0.40;0.40;;;14.30;99.90;;;;;;5063389;28;20226;-83
2022/06/03 07:32:26;;;;;;;0.63;0.60;;;14.30;99.90;;;;;;5022961;28;20248;-83
2022/06/03 07:35:07;;;;;;;4.03;1.13;;;14.20;99.90;;;;;;5039340;28;20264;-81
2022/06/03 07:38:06;;;;;;;0.93;0.93;;;14.40;99.90;;;;;;5026887;28;20212;-84
2022/06/03 07:40:43;;;;;;;0.57;0.57;;;14.50;99.90;;;;;;5057103;28;20205;-80
2022/06/03 07:43:23;;;;;;;0.52;0.52;;;14.60;99.90;;;;;;5044209;28;20197;-79
2022/06/03 07:46:32;;;;;;;2.10;1.70;;;14.70;99.90;;;;;;5042774;28;20273;-80
2022/06/03 07:48:59;;;;;;;0.43;0.43;;;14.80;99.90;;;;;;5055583;28;20209;-81
2022/06/03 07:51:33;;;;;;;0.50;0.50;;;14.90;99.90;;;;;;5040064;28;20667;-81
2022/06/03 07:54:06;;;;;;;0.68;0.68;;;15.00;99.90;;;;;;5041210;28;20202;-80
2022/06/03 07:56:37;;;;;;;0.70;0.70;;;15.10;99.90;;;;;;5040840;28;20715;-82
2022/06/03 07:59:18;;;;;;;1.05;0.98;;;15.20;99.90;;;;;;5023724;28;20206;-81
2022/06/03 08:01:56;;;;;;;0.60;0.60;;;15.20;99.90;;;;;;5056971;28;20193;-82
2022/06/03 08:04:29;;;;;;;0.32;0.32;;;15.30;99.90;;;;;;5024764;28;20190;-81
2022/06/03 08:12:38;;;;;;;0.80;0.65;;;15.70;99.90;;;;;;5079758;28;20622;-81
2022/06/03 08:15:21;;;;;;;0.73;0.70;;;16.00;99.90;;;;;;5080155;28;20599;-82
2022/06/03 08:17:49;;;;;;;0.52;0.52;;;16.30;99.90;;;;;;5079222;28;20197;-82
2022/06/03 08:20:18;;;;;;;0.22;0.22;;;16.40;99.90;;;;;;5061326;28;20620;-82
2022/06/03 08:22:46;;;;;;;0.15;0.15;;;16.50;99.90;;;;;;5060700;28;20594;-82
2022/06/03 08:25:18;;;;;;;0.20;0.20;;;16.60;99.90;;;;;;5079787;28;20278;-82
2022/06/03 08:27:46;;;;;;;1.42;0.88;;;16.60;99.90;;;;;;5040610;28;20194;-82
2022/06/03 08:30:19;;;;;;;0.60;0.30;;;16.90;99.90;;;;;;5049712;28;20193;-81
2022/06/03 08:32:54;;;;;;;17.08;2.28;;;17.40;99.90;;;;;;5057828;28;20648;-82
2022/06/03 08:35:24;;;;;;;0.98;0.35;;;17.90;99.90;;;;;;5040852;28;20193;-82
2022/06/03 08:38:13;;;;;;;0.52;0.52;;;17.70;99.90;;;;;;5040289;28;20209;-82
2022/06/03 08:40:51;;;;;;;0.40;0.40;;;17.90;99.90;;;;;;5037829;28;20228;-82
2022/06/03 08:43:19;;;;;;;2.63;0.95;;;17.80;99.90;;;;;;5055563;28;20612;-82
2022/06/03 08:46:03;;;;;;;1.33;0.40;;;17.90;99.90;;;;;;5057960;28;20554;-83
2022/06/03 08:48:37;;;;;;;0.20;0.20;;;17.80;99.90;;;;;;5040770;28;20233;-84
2022/06/03 08:51:08;;;;;;;0.80;0.52;;;18.10;99.90;;;;;;5041046;28;20207;-80
2022/06/03 08:53:54;;;;;;;0.22;0.22;;;17.70;99.90;;;;;;5041991;28;20197;-82
2022/06/03 08:56:24;;;;;;;0.47;0.30;;;18.10;99.90;;;;;;5042065;28;20686;-82
2022/06/03 08:58:57;;;;;;;0.28;0.28;;;18.20;99.90;;;;;;5042799;28;20201;-81
2022/06/03 09:01:29;;;;;;;0.65;0.10;;;18.50;99.90;;;;;;5062122;28;20211;-81
2022/06/03 09:04:07;;;;;;;0.10;0.10;;;18.40;99.90;;;;;;5062079;28;20199;-81
2022/06/03 09:07:01;;;;;;;5.68;0.30;;;18.70;99.90;;;;;;5061782;28;20201;-81
2022/06/03 09:09:44;;;;;;;1.00;0.63;;;19.20;99.90;;;;;;5061470;28;20251;-82
2022/06/03 09:12:28;;;;;;;0.30;0.30;;;20.00;99.90;;;;;;5061191;28;20609;-80
2022/06/03 09:15:15;;;;;;;1.35;0.57;;;21.10;99.90;;;;;;5061800;28;20255;-81
2022/06/03 09:18:13;;;;;;;0.20;0.20;;;21.50;99.90;;;;;;5060527;28;20204;-82
2022/06/03 09:20:55;;;;;;;0.10;0.10;;;21.30;99.90;;;;;;5060241;28;20217;-80
2022/06/03 09:23:23;;;;;;;0.57;0.28;;;21.10;99.90;;;;;;5046388;28;20217;-82
2022/06/03 09:25:56;;;;;;;0.50;0.50;;;21.10;99.90;;;;;;5044561;28;20543;-81
2022/06/03 09:28:29;;;;;;;0.22;0.22;;;20.80;99.90;;;;;;5079311;28;20277;-82
2022/06/03 09:30:57;;;;;;;0.75;0.30;;;21.20;99.90;;;;;;5060624;28;20193;-81
2022/06/03 09:33:25;;;;;;;1.77;1.25;;;21.40;99.90;;;;;;5049132;28;20194;-83
2022/06/03 09:35:54;;;;;;;0.10;0.10;;;22.00;99.90;;;;;;5037515;28;20217;-82
2022/06/03 09:38:24;;;;;;;0.40;0.40;;;22.30;99.90;;;;;;5039047;28;20187;-84
2022/06/03 09:40:56;;;;;;;0.10;0.10;;;22.50;99.90;;;;;;5021753;28;20213;-82
2022/06/03 09:43:31;;;;;;;0.13;0.13;;;22.90;99.90;;;;;;5039609;28;20190;-83
2022/06/03 09:45:59;;;;;;;0.82;0.68;;;22.50;99.90;;;;;;5037640;28;20215;-83
2022/06/03 09:48:32;;;;;;;1.13;0.30;;;22.20;99.90;;;;;;5036571;28;20194;-82
2022/06/03 09:51:15;;;;;;;0.35;0.35;;;22.20;99.90;;;;;;5037035;28;20292;-84
2022/06/03 09:53:43;;;;;;;4.88;1.60;;;22.20;99.90;;;;;;5038037;28;20240;-83
2022/06/03 09:56:18;;;;;;;2.47;1.42;;;22.70;99.90;;;;;;5057002;28;20302;-82
2022/06/03 09:58:44;;;;;;;2.40;0.85;;;22.80;99.90;;;;;;5059838;28;20199;-83
2022/06/03 10:01:10;;;;;;;0.45;0.45;;;23.00;99.90;;;;;;5077805;28;20209;-83
2022/06/03 10:03:37;;;;;;;0.20;0.17;;;23.20;99.90;;;;;;5078469;28;20585;-82
2022/06/03 10:06:04;;;;;;;1.23;0.40;;;23.20;99.90;;;;;;5059991;28;20266;-83
2022/06/03 10:14:04;;;;;;;0.22;0.22;;;23.80;99.90;;;;;;5078374;28;20216;-83
2022/06/03 10:16:30;;;;;;;0.08;0.08;;;24.20;99.90;;;;;;5042897;28;20208;-84
2022/06/03 10:18:56;;;;;;;0.10;0.10;;;24.50;99.90;;;;;;5049825;28;20578;-83
2022/06/03 10:21:22;;;;;;;0.10;0.10;;;24.70;99.50;;;;;;5062768;28;20629;-83
2022/06/03 10:23:55;;;;;;;0.00;0.00;;;25.20;97.80;;;;;;5061972;28;20205;-83
2022/06/03 10:26:26;;;;;;;0.20;0.20;;;25.00;98.90;;;;;;5077387;28;20200;-83
2022/06/03 10:28:54;;;;;;;0.20;0.20;;;24.90;94.30;;;;;;5059925;28;20690;-83
2022/06/03 10:31:33;;;;;;;0.13;0.13;;;24.70;97.70;;;;;;5060041;28;20193;-84
2022/06/03 10:34:02;;;;;;;0.22;0.22;;;25.40;96.90;;;;;;5060482;28;20214;-83
2022/06/03 10:36:46;;;;;;;0.10;0.10;;;25.40;94.40;;;;;;5060041;28;20201;-83
2022/06/03 10:39:20;;;;;;;1.05;0.55;;;25.40;93.80;;;;;;5060682;28;20201;-83
2022/06/03 10:41:51;;;;;;;0.25;0.25;;;24.80;93.00;;;;;;5060161;28;20207;-83
2022/06/03 10:44:21;;;;;;;0.28;0.28;;;24.30;92.50;;;;;;5062043;28;20228;-84
2022/06/03 10:47:28;;;;;;;0.50;0.50;;;24.50;93.70;;;;;;5060005;28;20228;-83
2022/06/03 10:50:00;;;;;;;0.15;0.15;;;24.70;93.30;;;;;;5061101;28;20209;-84
2022/06/03 11:01:35;;;;;;;0.20;0.20;;;23.80;94.80;;;;;;5081771;28;20199;-83
2022/06/03 11:04:01;;;;;;;0.20;0.20;;;24.50;91.40;;;;;;5055476;28;20201;-83
2022/06/03 11:06:34;;;;;;;1.70;0.68;;;24.50;92.10;;;;;;5063611;28;20254;-82
2022/06/03 11:09:03;;;;;;;0.40;0.35;;;24.00;92.20;;;;;;5063577;28;20200;-82
2022/06/03 11:11:33;;;;;;;0.45;0.45;;;23.30;96.40;;;;;;5063564;28;20217;-82
2022/06/03 11:14:24;;;;;;;0.47;0.47;;;22.50;98.80;;;;;;5062836;28;20193;-82
2022/06/03 11:17:11;;;;;;;0.30;0.30;;;22.00;99.90;;;;;;5043225;28;20672;-82
2022/06/03 11:19:47;;;;;;;0.20;0.20;;;21.50;99.90;;;;;;5077452;28;20231;-83
2022/06/03 11:22:18;;;;;;;0.22;0.22;;;21.10;99.90;;;;;;5062301;28;20229;-82
2022/06/03 11:25:04;;;;;;;1.20;0.65;;;20.60;99.90;;;;;;5062072;28;20212;-83
2022/06/03 11:27:50;;;;;;;1.98;0.75;;;20.30;99.90;;;;;;5062013;28;20199;-82
2022/06/03 11:31:01;;;;;;;0.20;0.20;;;20.00;99.90;;;;;;5062465;28;20197;-83
2022/06/03 11:33:56;;;;;;;0.40;0.40;;;20.00;99.90;;;;;;4982030;28;20191;-83
2022/06/03 11:36:30;;;;;;;1.02;0.90;;;20.40;99.90;;;;;;4998544;28;20207;-83
2022/06/03 11:39:10;;;;;;;0.50;0.50;;;20.40;99.90;;;;;;4998561;28;20215;-83
2022/06/03 11:41:59;;;;;;;0.30;0.30;;;20.40;99.90;;;;;;4982516;28;20199;-83
2022/06/03 11:44:25;;;;;;;0.28;0.28;;;20.80;99.90;;;;;;4981037;28;20212;-83
2022/06/03 11:47:00;;;;;;;0.60;0.60;;;21.00;99.90;;;;;;4998897;28;20199;-80
2022/06/03 11:49:26;;;;;;;0.40;0.40;;;21.80;99.90;;;;;;4981960;28;20210;-80
2022/06/03 11:51:53;;;;;;;0.40;0.40;;;21.80;99.90;;;;;;4981861;28;20242;-81
2022/06/03 11:54:23;;;;;;;0.30;0.30;;;21.50;99.90;;;;;;4981949;28;20192;-80
2022/06/03 11:56:50;;;;;;;0.20;0.20;;;21.50;99.90;;;;;;4998626;28;20235;-81
2022/06/03 11:59:31;;;;;;;0.30;0.30;;;21.40;99.90;;;;;;4981578;28;20655;-80
2022/06/03 12:02:13;;;;;;;1.10;0.40;;;21.20;99.90;;;;;;4997757;28;20219;-81
2022/06/03 12:04:57;;;;;;;0.52;0.52;;;20.80;99.90;;;;;;5039598;28;20339;-80
2022/06/03 12:07:38;;;;;;;0.20;0.20;;;19.90;99.90;;;;;;5079172;28;20208;-81
2022/06/03 12:10:34;;;;;;;0.20;0.20;;;19.30;99.90;;;;;;5061038;28;20193;-82
2022/06/03 12:13:15;;;;;;;0.40;0.40;;;19.00;99.90;;;;;;5041524;28;20255;-80
2022/06/03 12:15:51;;;;;;;0.40;0.40;;;18.70;99.90;;;;;;5072077;28;20219;-80
2022/06/03 12:18:36;;;;;;;0.30;0.30;;;18.60;99.90;;;;;;5061762;28;20268;-80
2022/06/03 12:21:29;;;;;;;0.20;0.20;;;18.40;99.90;;;;;;5063380;28;20536;-81
2022/06/03 12:23:56;;;;;;;0.50;0.50;;;18.00;99.90;;;;;;5081163;28;20223;-80
2022/06/03 12:26:29;;;;;;;0.73;0.55;;;17.80;99.90;;;;;;5081191;28;20231;-80
2022/06/03 12:29:08;;;;;;;0.30;0.30;;;17.80;99.90;;;;;;5081711;28;20192;-80
2022/06/03 12:31:45;;;;;;;0.35;0.35;;;17.90;99.90;;;;;;5080928;28;20192;-80
2022/06/03 12:50:51;;;;;;;0.30;0.30;;;17.40;99.90;;;;;;5193878;27;20511;-79
2022/06/03 12:53:29;;;;;;;0.35;0.35;;;17.30;99.90;;;;;;5154417;27;20205;-79
2022/06/03 12:56:00;;;;;;;0.40;0.40;;;17.20;99.90;;;;;;5172638;27;20276;-81
2022/06/03 12:58:46;;;;;;;0.30;0.30;;;17.20;99.90;;;;;;5153390;27;20196;-80
2022/06/03 13:01:27;;;;;;;0.30;0.30;;;16.90;99.90;;;;;;5153966;27;20276;-80
2022/06/03 13:03:52;;;;;;;0.82;0.50;;;16.90;99.90;;;;;;5153905;27;20193;-78
2022/06/03 13:06:26;;;;;;;0.30;0.30;;;17.00;99.90;;;;;;5153593;27;20679;-79
2022/06/03 13:11:45;;;;;;;0.50;0.38;;;16.80;99.90;;;;;;5172418;27;20200;-79
2022/06/03 13:14:28;;;;;;;1.08;0.77;;;16.60;99.90;;;;;;5172130;27;20189;-79
2022/06/03 13:16:54;;;;;;;0.73;0.73;;;16.40;99.90;;;;;;5153508;27;20652;-81
2022/06/03 13:19:23;;;;;;;1.08;0.40;;;16.10;99.90;;;;;;5153705;27;20197;-78
2022/06/03 13:22:09;;;;;;;0.50;0.50;;;15.90;99.90;;;;;;5153587;27;20194;-78
2022/06/03 13:24:37;;;;;;;0.70;0.70;;;15.90;99.90;;;;;;5171859;27;20549;-79
2022/06/03 13:27:19;;;;;;;0.50;0.45;;;15.90;99.90;;;;;;5152975;27;20276;-79
2022/06/03 13:29:57;;;;;;;0.38;0.38;;;16.00;99.90;;;;;;5153140;27;20584;-78
2022/06/03 13:32:35;;;;;;;0.40;0.40;;;16.00;99.90;;;;;;5152822;27;20181;-77
2022/06/03 13:35:20;;;;;;;1.08;0.68;;;16.00;99.90;;;;;;5171715;27;20189;-78
2022/06/03 13:37:55;;;;;;;0.38;0.38;;;16.00;99.90;;;;;;5171668;27;20269;-78
2022/06/03 13:40:24;;;;;;;0.55;0.55;;;16.00;99.90;;;;;;5152891;27;20189;-78
2022/06/03 13:42:59;;;;;;;0.30;0.30;;;16.10;99.90;;;;;;5172047;27;20185;-78
2022/06/03 13:45:53;;;;;;;0.40;0.40;;;16.10;99.90;;;;;;5152873;27;20193;-79
2022/06/03 13:48:32;;;;;;;0.52;0.52;;;16.00;99.90;;;;;;5152745;27;20244;-78
2022/06/03 13:51:21;;;;;;;0.70;0.70;;;15.80;99.90;;;;;;5147188;27;20208;-79
2022/06/03 13:53:53;;;;;;;0.63;0.63;;;15.70;99.90;;;;;;5171403;27;20230;-79
2022/06/03 13:56:24;;;;;;;1.38;0.60;;;15.50;99.90;;;;;;5171670;27;20215;-76
2022/06/03 13:58:50;;;;;;;0.30;0.30;;;15.40;99.90;;;;;;5171736;27;20280;-79
2022/06/03 14:01:30;;;;;;;0.60;0.57;;;15.50;99.90;;;;;;5158846;27;20214;-79
2022/06/03 14:04:02;;;;;;;0.57;0.57;;;15.30;99.90;;;;;;5138813;27;20740;-78
2022/06/03 14:06:34;;;;;;;0.43;0.43;;;15.20;99.90;;;;;;5157396;27;20193;-79
2022/06/03 14:09:09;;;;;;;0.50;0.50;;;15.30;99.90;;;;;;5157218;27;20202;-78
2022/06/03 14:11:54;;;;;;;0.40;0.40;;;15.10;99.90;;;;;;5156960;27;20211;-78
2022/06/03 14:14:28;;;;;;;0.60;0.60;;;15.10;99.90;;;;;;5138437;27;20277;-78
2022/06/03 14:17:09;;;;;;;0.85;0.73;;;15.00;99.90;;;;;;5138605;27;20202;-78
2022/06/03 14:19:44;;;;;;;0.40;0.40;;;15.00;99.90;;;;;;5138176;27;20226;-78
2022/06/03 14:22:36;;;;;;;0.38;0.38;;;15.10;99.90;;;;;;5157531;27;20533;-79
2022/06/03 14:25:20;;;;;;;0.32;0.32;;;15.10;99.90;;;;;;5138560;27;20194;-80
2022/06/03 14:27:46;;;;;;;1.20;0.85;;;15.20;99.90;;;;;;5138573;27;20194;-81
2022/06/03 14:30:29;;;;;;;0.40;0.40;;;15.20;99.90;;;;;;5156988;27;20665;-78
2022/06/03 14:32:58;;;;;;;0.47;0.47;;;15.20;99.90;;;;;;5156936;27;20182;-78
2022/06/03 14:35:33;;;;;;;0.50;0.50;;;15.20;99.90;;;;;;5137952;27;20261;-78
2022/06/03 14:38:17;;;;;;;0.55;0.55;;;15.20;99.90;;;;;;5138390;27;20236;-77
2022/06/03 14:40:46;;;;;;;0.30;0.30;;;15.20;99.90;;;;;;5156411;27;20549;-77
2022/06/03 14:43:16;;;;;;;0.40;0.40;;;15.20;99.90;;;;;;5156687;27;20225;-78
2022/06/03 14:45:50;;;;;;;0.45;0.45;;;15.20;99.90;;;;;;5156161;27;20190;-78
2022/06/03 14:48:21;;;;;;;0.40;0.40;;;15.30;99.90;;;;;;5134148;27;20221;-78
2022/06/03 14:50:54;;;;;;;0.40;0.40;;;15.50;99.90;;;;;;5115460;27;20203;-77